FLL weather

Fort Lauderdale Hollywood International Airport
Fort Lauderdale, Florida, United States

Public forecast

Using degrees Fahrenheit for public forecast. Weather courtesy of forecast.io.

METAR (pilot weather report)

Retrieved 2018/08/20 02:53 UTC (45 minutes ago):

KFLL 200253Z 12004KT 10SM FEW040 SCT230 28/25 A3009 RMK AO2 SLP187 T02780250 53016

TAF (pilot weather forecast)

Forecast is more than 12 hours old.

Retrieved 2018/08/19 00:31 UTC (1 day ago):

TAF KFLL 192329Z 2000/2106 26007KT P6SM VCSH FEW030 BKN060 BKN250 FM200300 VRB04KT P6SM SCT030 SCT080 SCT250 FM201500 13009KT P6SM VCSH SCT030 BKN080 FM201800 10011KT P6SM VCSH BKN025 BKN060 FM210300 VRB04KT P6SM SCT030 SCT080 BKN250